Time;durP1;ratioP1;P1;durP2;ratioP2;P2;SDS_P1;SDS_P2;PMS_P1;PMS_P2;Temp;Humidity;BMP_temperature;BMP_pressure;BME280_temperature;BME280_humidity;BME280_pressure;Samples;Min_cycle;Max_cycle;Signal;HPM_P1;HPM_P2
2023/08/21 00:01:33;;;;;;;5.10;4.60;;;23.30;99.90;;;;;;5088418;28;20742;-75
2023/08/21 00:04:00;;;;;;;5.50;4.97;;;23.30;99.90;;;;;;5088507;28;20635;-75
2023/08/21 00:06:26;;;;;;;4.97;4.47;;;23.30;99.90;;;;;;5088627;28;20638;-75
2023/08/21 00:08:53;;;;;;;4.73;4.33;;;23.30;99.90;;;;;;5087579;28;21002;-75
2023/08/21 00:11:21;;;;;;;5.23;4.73;;;23.20;99.90;;;;;;5088014;28;20629;-75
2023/08/21 00:13:49;;;;;;;5.17;4.67;;;23.20;99.90;;;;;;5088423;28;20661;-75
2023/08/21 00:16:17;;;;;;;4.93;4.50;;;23.10;99.90;;;;;;5088255;28;20643;-75
2023/08/21 00:18:43;;;;;;;6.60;5.33;;;23.10;99.90;;;;;;5087517;28;20633;-75
2023/08/21 00:21:10;;;;;;;7.10;5.10;;;23.10;99.90;;;;;;5088874;28;20631;-75
2023/08/21 00:23:38;;;;;;;4.87;4.37;;;23.20;99.90;;;;;;5088308;28;20967;-75
2023/08/21 00:26:05;;;;;;;6.03;5.43;;;23.30;99.90;;;;;;5087967;28;20637;-75
2023/08/21 00:28:34;;;;;;;8.90;5.00;;;23.20;99.90;;;;;;5088899;28;20634;-75
2023/08/21 00:31:02;;;;;;;4.80;4.40;;;23.10;99.90;;;;;;5088023;28;20631;-75
2023/08/21 00:33:29;;;;;;;6.30;5.20;;;23.10;99.90;;;;;;5089046;28;20642;-75
2023/08/21 00:35:56;;;;;;;6.97;6.27;;;23.10;99.90;;;;;;5088396;28;20631;-75
2023/08/21 00:38:22;;;;;;;4.77;4.30;;;23.10;99.90;;;;;;5087979;28;20630;-75
2023/08/21 00:40:49;;;;;;;5.40;4.67;;;22.90;99.90;;;;;;5087130;28;21156;-75
2023/08/21 00:43:16;;;;;;;4.77;4.37;;;22.90;99.90;;;;;;5087507;28;20629;-75
2023/08/21 00:45:45;;;;;;;5.73;5.17;;;22.90;99.90;;;;;;5088124;28;21182;-75
2023/08/21 00:48:13;;;;;;;6.30;4.50;;;22.90;99.90;;;;;;5087964;28;20645;-75
2023/08/21 00:50:41;;;;;;;5.90;5.30;;;22.90;99.90;;;;;;5086795;28;20621;-75
2023/08/21 00:53:08;;;;;;;4.77;4.37;;;22.90;99.90;;;;;;5087365;28;20664;-75
2023/08/21 00:55:35;;;;;;;5.17;4.77;;;22.90;99.90;;;;;;5087532;28;20634;-75
2023/08/21 00:58:03;;;;;;;5.20;4.80;;;22.90;99.90;;;;;;5087883;28;20623;-75
2023/08/21 01:00:31;;;;;;;10.00;4.33;;;22.90;99.90;;;;;;5086606;28;20619;-75
2023/08/21 01:02:59;;;;;;;5.30;4.80;;;22.80;99.90;;;;;;5087077;28;20636;-75
2023/08/21 01:05:25;;;;;;;5.00;4.50;;;22.80;99.90;;;;;;5087437;28;20629;-75
2023/08/21 01:07:58;;;;;;;5.33;4.63;;;22.70;99.90;;;;;;5086380;28;20632;-75
2023/08/21 01:10:36;;;;;;;6.17;4.33;;;22.60;99.90;;;;;;5087630;28;20623;-75
2023/08/21 01:13:12;;;;;;;4.83;4.13;;;22.50;99.90;;;;;;5087218;28;21228;-75
2023/08/21 01:15:40;;;;;;;11.10;5.43;;;22.50;99.90;;;;;;5087006;28;21207;-75
2023/08/21 01:18:09;;;;;;;5.67;4.63;;;22.50;99.90;;;;;;5084979;28;20710;-76
2023/08/21 01:20:38;;;;;;;4.87;4.47;;;22.50;99.90;;;;;;5086896;28;20630;-76
2023/08/21 01:23:06;;;;;;;5.93;5.33;;;22.50;99.90;;;;;;5087626;28;21048;-75
2023/08/21 01:25:35;;;;;;;5.90;4.80;;;22.50;99.90;;;;;;5087828;28;21219;-75
2023/08/21 01:28:03;;;;;;;5.53;4.70;;;22.50;99.90;;;;;;5085975;28;21060;-75
2023/08/21 01:30:33;;;;;;;5.70;5.20;;;22.50;99.90;;;;;;5086556;28;21266;-76
2023/08/21 01:33:06;;;;;;;4.73;4.33;;;22.40;99.90;;;;;;5087033;28;21325;-75
2023/08/21 01:35:36;;;;;;;5.70;5.10;;;22.40;99.90;;;;;;5086802;28;20624;-76
2023/08/21 01:38:04;;;;;;;5.00;4.50;;;22.40;99.90;;;;;;5086366;28;21088;-75
2023/08/21 01:40:32;;;;;;;6.13;4.90;;;22.30;99.90;;;;;;5086203;28;20632;-75
2023/08/21 01:43:00;;;;;;;4.57;4.13;;;22.30;99.90;;;;;;5087296;28;20622;-75
2023/08/21 01:45:29;;;;;;;5.17;4.67;;;22.30;99.90;;;;;;5086883;28;20630;-75
2023/08/21 01:47:57;;;;;;;5.10;4.60;;;22.20;99.90;;;;;;5086799;28;20712;-76
2023/08/21 01:50:24;;;;;;;4.80;4.37;;;22.30;99.90;;;;;;5085816;28;21228;-76
2023/08/21 01:52:52;;;;;;;5.33;4.50;;;22.30;99.90;;;;;;5087331;28;20647;-75
2023/08/21 01:55:20;;;;;;;4.60;4.20;;;22.30;99.90;;;;;;5086335;28;20793;-75
2023/08/21 01:57:48;;;;;;;6.33;5.20;;;22.20;99.90;;;;;;5087131;28;20632;-76
2023/08/21 02:00:18;;;;;;;5.93;4.73;;;22.20;99.90;;;;;;5085379;28;21102;-75
2023/08/21 02:02:46;;;;;;;5.20;4.03;;;22.10;99.90;;;;;;5086788;28;20644;-76
2023/08/21 02:05:14;;;;;;;5.70;5.00;;;22.10;99.90;;;;;;5086532;28;20665;-76
2023/08/21 02:07:42;;;;;;;4.53;4.13;;;22.20;99.90;;;;;;5085378;28;20677;-75
2023/08/21 02:10:09;;;;;;;6.20;4.93;;;22.30;99.90;;;;;;5086281;28;20628;-76
2023/08/21 02:12:36;;;;;;;5.57;4.83;;;22.20;99.90;;;;;;5086141;28;20638;-75
2023/08/21 02:15:03;;;;;;;7.80;4.93;;;22.20;99.90;;;;;;5086640;28;20627;-76
2023/08/21 02:17:32;;;;;;;5.53;4.77;;;22.20;99.90;;;;;;5086840;28;21638;-75
2023/08/21 02:19:59;;;;;;;5.20;4.80;;;22.10;99.90;;;;;;5085429;28;20618;-76
2023/08/21 02:22:27;;;;;;;4.87;4.47;;;22.10;99.90;;;;;;5086968;28;20625;-75
2023/08/21 02:24:56;;;;;;;7.90;5.00;;;22.00;99.90;;;;;;5086368;28;20628;-76
2023/08/21 02:27:23;;;;;;;8.70;5.50;;;21.90;99.90;;;;;;5086320;28;20622;-76
2023/08/21 02:29:51;;;;;;;6.63;5.53;;;21.90;99.90;;;;;;5085649;28;20817;-75
2023/08/21 02:32:19;;;;;;;4.73;4.23;;;21.80;99.90;;;;;;5086905;28;20776;-76
2023/08/21 02:34:47;;;;;;;8.10;5.20;;;21.80;99.90;;;;;;5086192;28;20698;-76
2023/08/21 02:37:15;;;;;;;6.50;4.70;;;21.90;99.90;;;;;;5087082;28;20984;-76
2023/08/21 02:39:42;;;;;;;5.03;4.53;;;21.90;99.90;;;;;;5083645;28;20620;-76
2023/08/21 02:42:09;;;;;;;5.73;5.13;;;21.80;99.90;;;;;;5086525;28;20793;-75
2023/08/21 02:44:36;;;;;;;5.67;5.00;;;21.80;99.90;;;;;;5086922;28;20665;-75
2023/08/21 02:47:04;;;;;;;4.70;4.27;;;21.70;99.90;;;;;;5086622;28;20624;-76
2023/08/21 02:49:32;;;;;;;6.20;5.23;;;21.80;99.90;;;;;;5085288;28;20638;-76
2023/08/21 02:52:01;;;;;;;6.00;5.50;;;21.70;99.90;;;;;;5086012;28;21213;-75
2023/08/21 02:54:30;;;;;;;5.33;4.83;;;21.60;99.90;;;;;;5086524;28;20664;-75
2023/08/21 02:56:57;;;;;;;6.80;4.43;;;21.60;99.90;;;;;;5086660;28;20636;-75
2023/08/21 02:59:25;;;;;;;6.23;5.63;;;21.60;99.90;;;;;;5085278;28;20639;-76
2023/08/21 03:01:53;;;;;;;5.53;5.03;;;21.50;99.90;;;;;;5085846;28;20634;-76
2023/08/21 03:04:21;;;;;;;13.80;6.10;;;21.60;99.90;;;;;;5086828;28;21429;-75
2023/08/21 03:06:48;;;;;;;6.17;5.57;;;21.60;99.90;;;;;;5085920;28;20621;-75
2023/08/21 03:09:17;;;;;;;6.33;5.70;;;21.60;99.90;;;;;;5083422;28;20628;-76
2023/08/21 03:11:45;;;;;;;6.77;4.93;;;21.50;99.90;;;;;;5086361;28;20634;-76
2023/08/21 03:14:13;;;;;;;7.70;5.00;;;21.40;99.90;;;;;;5090235;28;21222;-75
2023/08/21 03:16:41;;;;;;;6.80;5.50;;;21.40;99.90;;;;;;5089256;28;20629;-75
2023/08/21 03:19:08;;;;;;;7.77;6.43;;;21.50;99.90;;;;;;5089146;28;21245;-75
2023/08/21 03:21:35;;;;;;;5.90;5.20;;;21.50;99.90;;;;;;5089438;28;20780;-75
2023/08/21 03:24:02;;;;;;;9.17;5.37;;;21.50;99.90;;;;;;5089326;28;20662;-75
2023/08/21 03:26:30;;;;;;;5.50;5.00;;;21.40;99.90;;;;;;5089447;28;21428;-76
2023/08/21 03:28:57;;;;;;;6.27;5.63;;;21.40;99.90;;;;;;5088569;28;20639;-75
2023/08/21 03:31:24;;;;;;;8.60;5.40;;;21.30;99.90;;;;;;5089060;28;21483;-76
2023/08/21 03:33:50;;;;;;;6.27;5.67;;;21.30;99.90;;;;;;5089847;28;20647;-75
2023/08/21 03:36:17;;;;;;;6.03;5.50;;;21.20;99.90;;;;;;5088874;28;21203;-76
2023/08/21 03:38:44;;;;;;;7.13;4.90;;;21.20;99.90;;;;;;5088210;28;20630;-76
2023/08/21 03:41:11;;;;;;;7.27;5.00;;;21.30;99.90;;;;;;5089818;28;22252;-76
2023/08/21 03:43:39;;;;;;;5.40;4.87;;;21.30;99.90;;;;;;5088169;28;21044;-76
2023/08/21 03:46:06;;;;;;;6.87;6.17;;;21.30;99.90;;;;;;5088849;28;20628;-76
2023/08/21 03:48:32;;;;;;;6.80;6.10;;;21.30;99.90;;;;;;5089358;28;20689;-76
2023/08/21 03:50:59;;;;;;;7.80;6.27;;;21.30;99.90;;;;;;5088336;28;20628;-76
2023/08/21 03:53:26;;;;;;;6.37;5.77;;;21.30;99.90;;;;;;5089348;28;21284;-76
2023/08/21 03:55:53;;;;;;;7.47;6.33;;;21.10;99.90;;;;;;5088626;28;20627;-76
2023/08/21 03:58:20;;;;;;;7.50;5.73;;;21.10;99.90;;;;;;5088601;28;20630;-76
2023/08/21 04:00:48;;;;;;;6.30;5.70;;;21.00;99.90;;;;;;5086785;28;21193;-76
2023/08/21 04:03:15;;;;;;;9.70;5.63;;;21.00;99.90;;;;;;5088699;28;20631;-76
2023/08/21 04:05:41;;;;;;;5.20;4.70;;;20.90;99.90;;;;;;5089107;28;20687;-76
2023/08/21 04:08:08;;;;;;;6.23;5.47;;;21.00;99.90;;;;;;5088807;28;20639;-76
2023/08/21 04:10:35;;;;;;;5.43;4.93;;;21.00;99.90;;;;;;5087663;28;20634;-76
2023/08/21 04:13:02;;;;;;;5.70;5.20;;;21.00;99.90;;;;;;5087576;28;20756;-76
2023/08/21 04:15:29;;;;;;;7.47;6.07;;;21.00;99.90;;;;;;5086993;28;20658;-76
2023/08/21 04:17:57;;;;;;;6.50;5.57;;;21.00;99.90;;;;;;5088452;28;20755;-76
2023/08/21 04:20:24;;;;;;;5.47;4.97;;;21.00;99.90;;;;;;5088097;28;21082;-76
2023/08/21 04:22:51;;;;;;;7.00;6.30;;;21.00;99.90;;;;;;5088468;28;20979;-76
2023/08/21 04:25:18;;;;;;;7.90;5.73;;;21.00;99.90;;;;;;5087278;28;20983;-76
2023/08/21 04:27:45;;;;;;;7.80;6.20;;;20.90;99.90;;;;;;5088857;28;20640;-76
2023/08/21 04:30:13;;;;;;;7.33;5.80;;;20.80;99.90;;;;;;5087527;28;20638;-76
2023/08/21 04:32:39;;;;;;;6.17;5.07;;;20.80;99.90;;;;;;5087398;28;20629;-76
2023/08/21 04:35:09;;;;;;;6.70;5.50;;;20.80;99.90;;;;;;5087200;28;20666;-76
2023/08/21 04:37:38;;;;;;;6.70;4.73;;;20.80;99.90;;;;;;5087227;28;20632;-76
2023/08/21 04:40:06;;;;;;;5.90;5.30;;;20.80;99.90;;;;;;5087290;28;20641;-77
2023/08/21 04:42:33;;;;;;;7.20;6.50;;;20.80;99.90;;;;;;5087856;28;20625;-82
2023/08/21 04:45:00;;;;;;;5.97;5.17;;;20.80;99.90;;;;;;5087730;28;21275;-82
2023/08/21 04:47:27;;;;;;;8.53;5.87;;;20.80;99.90;;;;;;5088344;28;20724;-80
2023/08/21 04:49:55;;;;;;;5.57;5.07;;;20.80;99.90;;;;;;5086316;28;20621;-82
2023/08/21 04:52:25;;;;;;;6.37;5.77;;;20.80;99.90;;;;;;5087266;28;20626;-82
2023/08/21 04:54:52;;;;;;;6.53;5.30;;;20.80;99.90;;;;;;5086907;28;20685;-84
2023/08/21 04:57:20;;;;;;;6.90;5.90;;;20.80;99.90;;;;;;5087145;28;21197;-85
2023/08/21 04:59:47;;;;;;;5.90;5.37;;;20.90;99.90;;;;;;5086680;28;21074;-83
2023/08/21 05:02:14;;;;;;;7.00;6.03;;;20.90;99.90;;;;;;5081133;28;20623;-83
2023/08/21 05:04:41;;;;;;;6.03;5.43;;;20.90;99.90;;;;;;5086086;28;20649;-83
2023/08/21 05:07:08;;;;;;;6.23;5.63;;;21.00;99.90;;;;;;5085591;28;20657;-83
2023/08/21 05:09:36;;;;;;;6.53;5.90;;;21.00;99.90;;;;;;5085385;28;20985;-83
2023/08/21 05:12:03;;;;;;;9.57;6.20;;;21.00;99.90;;;;;;5086149;28;20619;-84
2023/08/21 05:14:30;;;;;;;6.97;6.27;;;21.10;99.90;;;;;;5087030;28;21037;-81
2023/08/21 05:16:58;;;;;;;6.10;5.50;;;21.10;99.90;;;;;;5087489;28;20623;-84
2023/08/21 05:19:25;;;;;;;5.60;5.10;;;21.20;99.90;;;;;;5086382;28;20630;-84
2023/08/21 05:21:54;;;;;;;5.30;4.80;;;21.20;99.90;;;;;;5086244;28;20628;-82
2023/08/21 05:24:24;;;;;;;7.00;5.30;;;21.30;99.90;;;;;;5087582;28;20654;-82
2023/08/21 05:26:52;;;;;;;7.20;6.50;;;21.30;99.90;;;;;;5086260;28;21181;-83
2023/08/21 05:29:27;;;;;;;6.33;5.10;;;21.40;99.90;;;;;;5084877;28;20629;-82
2023/08/21 05:31:54;;;;;;;5.40;4.90;;;21.40;99.90;;;;;;5086200;28;20633;-83
2023/08/21 05:34:21;;;;;;;6.00;5.40;;;21.50;99.90;;;;;;5087764;28;20658;-87
2023/08/21 05:36:48;;;;;;;7.03;6.23;;;21.50;99.90;;;;;;5086893;28;20683;-84
2023/08/21 05:39:15;;;;;;;6.03;5.43;;;21.50;99.90;;;;;;5088049;28;20659;-85
2023/08/21 05:41:42;;;;;;;5.80;5.30;;;21.50;99.90;;;;;;5088237;28;21053;-83
2023/08/21 05:44:10;;;;;;;6.60;6.00;;;21.60;99.90;;;;;;5087983;28;20623;-82
2023/08/21 05:46:37;;;;;;;5.50;5.00;;;21.60;99.90;;;;;;5087571;28;21268;-82
2023/08/21 05:49:04;;;;;;;7.40;6.17;;;21.70;99.90;;;;;;5086396;28;20630;-82
2023/08/21 05:51:32;;;;;;;6.60;5.90;;;21.80;99.90;;;;;;5085608;28;20641;-78
2023/08/21 05:53:58;;;;;;;11.67;6.03;;;21.90;99.90;;;;;;5080478;28;21371;-78
2023/08/21 05:56:25;;;;;;;6.50;5.20;;;22.00;99.90;;;;;;5085810;28;20637;-78
2023/08/21 05:58:52;;;;;;;9.40;5.33;;;22.10;99.90;;;;;;5084777;28;20629;-78
2023/08/21 06:01:20;;;;;;;4.93;4.43;;;22.20;99.90;;;;;;5086434;28;20653;-78
2023/08/21 06:03:47;;;;;;;5.77;5.17;;;22.30;99.90;;;;;;5086046;28;21307;-78
2023/08/21 06:06:14;;;;;;;5.83;5.30;;;22.30;99.90;;;;;;5085671;28;20635;-78
2023/08/21 06:08:40;;;;;;;7.60;5.37;;;22.30;99.90;;;;;;5086116;28;20642;-78
2023/08/21 06:11:07;;;;;;;5.27;4.80;;;22.40;99.90;;;;;;5082801;28;20998;-78
2023/08/21 06:13:34;;;;;;;6.00;5.20;;;22.50;99.90;;;;;;5086177;28;20633;-79
2023/08/21 06:16:01;;;;;;;5.43;4.90;;;22.60;99.90;;;;;;5085994;28;21203;-78
2023/08/21 06:18:29;;;;;;;5.47;4.90;;;22.70;99.90;;;;;;5086951;28;20623;-78
2023/08/21 06:20:56;;;;;;;5.97;5.37;;;22.70;99.90;;;;;;5085180;28;20620;-78
2023/08/21 06:23:23;;;;;;;6.00;5.40;;;22.80;99.90;;;;;;5085428;28;20634;-79
2023/08/21 06:25:50;;;;;;;8.87;4.77;;;22.80;99.90;;;;;;5085932;28;20662;-78
2023/08/21 06:28:16;;;;;;;7.63;5.10;;;22.90;99.90;;;;;;5085478;28;20659;-77
2023/08/21 06:30:43;;;;;;;5.30;4.80;;;23.00;99.90;;;;;;5085179;28;20652;-77
2023/08/21 06:33:10;;;;;;;5.90;5.37;;;23.10;99.90;;;;;;5086414;28;20639;-77
2023/08/21 06:35:38;;;;;;;5.50;5.00;;;23.10;99.90;;;;;;5085099;28;20759;-77
2023/08/21 06:38:06;;;;;;;6.47;5.03;;;23.30;99.90;;;;;;5086359;28;20628;-77
2023/08/21 06:40:33;;;;;;;6.53;4.60;;;23.30;99.90;;;;;;5084533;28;20625;-77
2023/08/21 06:42:59;;;;;;;5.37;4.30;;;23.40;99.90;;;;;;5086271;28;20628;-77
2023/08/21 06:45:29;;;;;;;6.10;5.00;;;23.50;99.90;;;;;;5085397;28;20625;-77
2023/08/21 06:47:56;;;;;;;5.30;4.90;;;23.70;99.90;;;;;;5087836;28;20629;-77
2023/08/21 06:50:23;;;;;;;6.77;6.07;;;23.80;99.90;;;;;;5088943;28;20631;-77
2023/08/21 06:52:51;;;;;;;8.20;5.43;;;23.80;99.90;;;;;;5087959;28;20653;-77
2023/08/21 06:55:18;;;;;;;5.40;5.00;;;23.90;99.90;;;;;;5089197;28;20680;-77
2023/08/21 06:57:45;;;;;;;5.63;4.93;;;23.90;99.90;;;;;;5087778;28;21171;-76
2023/08/21 07:00:13;;;;;;;4.87;4.47;;;24.00;99.90;;;;;;5089525;28;20633;-76
2023/08/21 07:02:39;;;;;;;5.10;4.47;;;24.10;99.90;;;;;;5088259;28;20651;-77
2023/08/21 07:05:07;;;;;;;6.40;5.17;;;24.10;99.90;;;;;;5089084;28;20623;-77
2023/08/21 07:07:34;;;;;;;5.60;5.00;;;24.20;99.90;;;;;;5088442;28;20638;-76
2023/08/21 07:10:03;;;;;;;5.17;4.47;;;24.30;99.90;;;;;;5089411;28;20640;-77
2023/08/21 07:12:30;;;;;;;5.60;5.07;;;24.40;99.90;;;;;;5089247;28;20736;-76
2023/08/21 07:14:58;;;;;;;5.60;5.10;;;24.40;99.90;;;;;;5089372;28;20667;-76
2023/08/21 07:17:26;;;;;;;5.10;4.67;;;24.60;99.90;;;;;;5089888;28;20631;-76
2023/08/21 07:19:53;;;;;;;7.30;4.90;;;24.80;99.90;;;;;;5088030;28;20635;-77
2023/08/21 07:22:20;;;;;;;6.67;4.63;;;24.90;99.90;;;;;;5087814;28;20633;-77
2023/08/21 07:24:47;;;;;;;6.83;5.70;;;24.90;99.90;;;;;;5089908;28;20630;-77
2023/08/21 07:27:15;;;;;;;6.10;5.30;;;24.90;99.90;;;;;;5089331;28;20813;-84
2023/08/21 07:29:42;;;;;;;6.87;6.20;;;25.00;99.90;;;;;;5088566;28;21181;-77
2023/08/21 07:32:09;;;;;;;5.10;4.60;;;25.00;99.90;;;;;;5088198;28;20819;-77
2023/08/21 07:34:36;;;;;;;7.17;5.40;;;25.10;99.50;;;;;;5087155;28;21231;-76
2023/08/21 07:37:03;;;;;;;6.80;6.07;;;25.30;99.80;;;;;;5088093;28;21195;-77
2023/08/21 07:39:29;;;;;;;8.10;6.00;;;25.30;99.90;;;;;;5088409;28;20629;-76
2023/08/21 07:41:56;;;;;;;5.43;5.03;;;25.40;99.70;;;;;;5087869;28;20637;-77
2023/08/21 07:44:24;;;;;;;6.33;5.80;;;25.50;99.60;;;;;;5088178;28;20744;-77
2023/08/21 07:46:51;;;;;;;6.23;5.67;;;25.70;99.30;;;;;;5088521;28;20633;-78
2023/08/21 07:49:18;;;;;;;6.57;5.27;;;25.80;99.30;;;;;;5087395;28;20635;-77
2023/08/21 07:51:45;;;;;;;5.67;5.20;;;26.00;99.10;;;;;;5087724;28;20631;-77
2023/08/21 07:54:11;;;;;;;6.87;5.20;;;26.00;99.00;;;;;;5088866;28;20640;-77
2023/08/21 07:56:40;;;;;;;5.20;4.70;;;26.00;99.00;;;;;;5088255;28;20783;-77
2023/08/21 07:59:07;;;;;;;5.77;5.20;;;26.10;98.80;;;;;;5086741;28;20748;-77
2023/08/21 08:01:36;;;;;;;6.00;5.40;;;26.10;98.40;;;;;;5088152;28;20629;-76
2023/08/21 08:04:02;;;;;;;6.33;5.80;;;26.10;98.30;;;;;;5088099;28;21433;-77
2023/08/21 08:06:29;;;;;;;12.20;5.53;;;26.30;98.60;;;;;;5088819;28;20628;-77
2023/08/21 08:08:56;;;;;;;6.10;5.43;;;26.40;98.30;;;;;;5087185;28;20629;-76
2023/08/21 08:11:25;;;;;;;6.77;5.93;;;26.50;97.70;;;;;;5088488;28;21588;-76
2023/08/21 08:13:51;;;;;;;5.43;5.03;;;26.60;97.60;;;;;;5085568;28;20632;-76
2023/08/21 08:16:18;;;;;;;6.97;6.10;;;26.60;97.20;;;;;;5087293;28;20744;-76
2023/08/21 08:18:46;;;;;;;5.30;4.90;;;26.80;97.30;;;;;;5088222;28;21085;-77
2023/08/21 08:21:13;;;;;;;7.57;5.53;;;26.80;96.60;;;;;;5088283;28;20640;-77
2023/08/21 08:23:40;;;;;;;6.23;5.17;;;27.00;97.10;;;;;;5088461;28;20681;-77
2023/08/21 08:26:08;;;;;;;5.23;4.83;;;27.00;96.50;;;;;;5086850;28;20621;-77
2023/08/21 08:28:35;;;;;;;5.70;5.20;;;27.00;96.70;;;;;;5087720;28;21285;-76
2023/08/21 08:31:02;;;;;;;8.30;6.20;;;27.20;96.90;;;;;;5086335;28;20625;-77
2023/08/21 08:33:29;;;;;;;6.43;5.27;;;27.30;96.20;;;;;;5088630;28;20666;-77
2023/08/21 08:35:57;;;;;;;9.33;5.50;;;27.30;95.90;;;;;;5087269;28;21323;-76
2023/08/21 08:38:24;;;;;;;6.23;5.63;;;27.40;95.50;;;;;;5087376;28;20633;-76
2023/08/21 08:40:54;;;;;;;6.77;5.93;;;27.70;94.80;;;;;;5085831;28;20655;-76
2023/08/21 08:43:22;;;;;;;5.70;5.20;;;27.90;95.30;;;;;;5086649;28;20635;-76
2023/08/21 08:45:51;;;;;;;6.53;5.93;;;28.10;95.40;;;;;;5087281;28;20639;-76
2023/08/21 08:48:20;;;;;;;6.33;5.73;;;28.10;94.40;;;;;;5087589;28;20633;-76
2023/08/21 08:50:50;;;;;;;5.97;5.47;;;28.10;94.40;;;;;;5086153;28;21900;-77
2023/08/21 08:53:19;;;;;;;6.20;5.63;;;28.10;94.70;;;;;;5087863;28;20723;-77
2023/08/21 08:55:46;;;;;;;9.30;6.47;;;28.10;94.60;;;;;;5087440;28;20670;-77
2023/08/21 08:58:13;;;;;;;7.43;6.03;;;28.00;94.90;;;;;;5086872;28;20620;-77
2023/08/21 09:00:40;;;;;;;6.67;6.07;;;28.10;94.70;;;;;;5086084;28;20636;-77
2023/08/21 09:03:08;;;;;;;7.13;6.17;;;28.20;94.30;;;;;;5085940;28;20614;-77
2023/08/21 09:05:35;;;;;;;6.27;5.10;;;28.20;94.20;;;;;;5087274;28;20726;-77
2023/08/21 09:08:11;;;;;;;5.97;5.43;;;28.40;93.90;;;;;;5086312;28;20637;-76
2023/08/21 09:10:40;;;;;;;7.07;6.37;;;28.40;93.80;;;;;;5085901;28;20626;-77
2023/08/21 09:13:14;;;;;;;6.13;5.63;;;28.40;93.30;;;;;;5087033;28;21219;-77
2023/08/21 09:15:43;;;;;;;6.17;5.67;;;28.50;93.80;;;;;;5086556;28;20663;-76
2023/08/21 09:18:11;;;;;;;6.97;6.27;;;28.60;93.50;;;;;;5086418;28;20625;-77
2023/08/21 09:20:39;;;;;;;5.57;5.13;;;28.60;92.80;;;;;;5085813;28;20732;-77
2023/08/21 09:23:06;;;;;;;7.33;5.80;;;28.80;92.90;;;;;;5086649;28;20993;-77
2023/08/21 09:25:36;;;;;;;6.63;6.00;;;28.80;92.30;;;;;;5086293;28;20621;-77
2023/08/21 09:28:07;;;;;;;5.20;4.80;;;28.80;92.50;;;;;;5087106;28;20629;-76
2023/08/21 09:30:47;;;;;;;8.13;5.57;;;29.10;91.60;;;;;;5085522;28;20631;-76
2023/08/21 09:33:14;;;;;;;6.10;5.60;;;29.10;90.50;;;;;;5086751;28;20628;-76
2023/08/21 09:35:44;;;;;;;6.00;5.23;;;28.90;90.70;;;;;;5086594;28;20759;-76
2023/08/21 09:38:11;;;;;;;7.57;6.87;;;29.00;90.80;;;;;;5086860;28;21052;-76
2023/08/21 09:40:41;;;;;;;6.70;6.00;;;29.00;90.80;;;;;;5085680;28;21018;-77
2023/08/21 09:43:10;;;;;;;6.40;5.90;;;29.20;91.30;;;;;;5086468;28;20624;-76
2023/08/21 09:45:37;;;;;;;9.20;5.97;;;29.20;90.70;;;;;;5085746;28;20632;-76
2023/08/21 09:48:05;;;;;;;5.40;4.90;;;29.20;90.30;;;;;;5084814;28;20634;-76
2023/08/21 09:50:32;;;;;;;9.57;4.60;;;29.30;90.00;;;;;;5086279;28;21073;-76
2023/08/21 09:52:59;;;;;;;7.17;5.67;;;29.40;89.70;;;;;;5086632;28;20650;-77
2023/08/21 09:55:29;;;;;;;6.90;6.20;;;29.40;88.00;;;;;;5086812;28;20656;-76
2023/08/21 09:57:59;;;;;;;5.60;5.10;;;29.50;90.10;;;;;;5085760;28;20628;-76
2023/08/21 10:00:30;;;;;;;5.10;4.60;;;29.70;89.30;;;;;;5085762;28;20633;-76
2023/08/21 10:03:02;;;;;;;8.73;5.43;;;29.80;88.60;;;;;;5086719;28;20955;-77
2023/08/21 10:05:29;;;;;;;5.40;4.90;;;30.00;87.50;;;;;;5083766;28;21443;-76
2023/08/21 10:07:57;;;;;;;6.10;5.50;;;29.90;88.40;;;;;;5084860;28;20735;-76
2023/08/21 10:10:24;;;;;;;5.20;4.80;;;29.80;86.30;;;;;;5084894;28;20614;-76
2023/08/21 10:12:51;;;;;;;5.77;5.30;;;29.90;86.90;;;;;;5085278;28;21058;-79
2023/08/21 10:15:18;;;;;;;5.50;4.97;;;30.00;87.10;;;;;;5085286;28;20620;-76
2023/08/21 10:17:46;;;;;;;5.43;5.00;;;30.10;86.60;;;;;;5084647;28;20638;-76
2023/08/21 10:20:13;;;;;;;5.20;4.80;;;30.10;86.70;;;;;;5084119;28;20639;-76
2023/08/21 10:22:43;;;;;;;4.90;4.50;;;30.30;86.40;;;;;;5089728;28;20780;-76
2023/08/21 10:25:17;;;;;;;5.63;5.03;;;30.40;84.00;;;;;;5089824;28;20636;-76
2023/08/21 10:27:44;;;;;;;6.77;5.40;;;30.50;82.70;;;;;;5089732;28;20746;-76
2023/08/21 10:30:15;;;;;;;6.00;5.37;;;30.30;84.00;;;;;;5088013;28;20623;-76
2023/08/21 10:32:48;;;;;;;7.07;5.20;;;30.30;81.30;;;;;;5091033;28;20638;-81
2023/08/21 10:35:16;;;;;;;7.40;5.40;;;30.50;84.20;;;;;;5090376;28;20619;-81
2023/08/21 10:38:12;;;;;;;6.20;5.60;;;30.70;84.00;;;;;;5090450;28;20634;-81
2023/08/21 10:40:40;;;;;;;6.00;4.90;;;30.80;81.70;;;;;;5089093;28;21223;-81
2023/08/21 10:43:41;;;;;;;5.77;5.30;;;31.10;79.50;;;;;;5090171;28;20620;-82
2023/08/21 10:46:08;;;;;;;5.00;4.53;;;31.20;81.50;;;;;;5090188;28;20648;-81
2023/08/21 10:48:37;;;;;;;5.87;4.97;;;31.40;80.90;;;;;;5089542;28;20620;-80
2023/08/21 10:51:05;;;;;;;6.30;5.80;;;31.40;82.10;;;;;;5087785;28;21249;-76
2023/08/21 10:53:33;;;;;;;6.67;5.97;;;31.60;78.80;;;;;;5088677;28;20631;-76
2023/08/21 10:56:02;;;;;;;5.90;5.40;;;31.60;79.50;;;;;;5088996;28;20797;-76
2023/08/21 10:58:29;;;;;;;5.37;4.87;;;31.70;79.40;;;;;;5089901;28;21571;-76
2023/08/21 11:00:59;;;;;;;5.20;4.80;;;31.90;78.60;;;;;;5087915;28;20759;-76
2023/08/21 11:03:26;;;;;;;4.60;4.13;;;32.10;79.60;;;;;;5087273;28;20625;-77
2023/08/21 11:06:05;;;;;;;7.27;5.60;;;32.10;77.50;;;;;;5089540;28;20999;-76
2023/08/21 11:08:32;;;;;;;8.10;6.03;;;32.10;77.30;;;;;;5089083;28;20632;-76
2023/08/21 11:10:59;;;;;;;5.93;4.83;;;32.00;76.00;;;;;;5089035;28;20623;-76
2023/08/21 11:13:27;;;;;;;6.10;5.67;;;32.10;75.30;;;;;;5089477;28;20655;-76
2023/08/21 11:16:01;;;;;;;5.30;4.90;;;32.30;77.80;;;;;;5088484;28;20660;-76
2023/08/21 11:18:32;;;;;;;5.47;5.00;;;32.50;75.70;;;;;;5089592;28;20626;-76
2023/08/21 11:21:06;;;;;;;6.40;5.40;;;32.60;75.50;;;;;;5087703;28;20631;-76
2023/08/21 11:23:34;;;;;;;6.10;5.50;;;32.80;77.40;;;;;;5089916;28;20691;-76
2023/08/21 11:26:02;;;;;;;6.73;6.20;;;33.10;75.00;;;;;;5088718;28;20624;-76
2023/08/21 11:28:30;;;;;;;7.10;6.33;;;33.10;73.40;;;;;;5088916;28;20646;-76
2023/08/21 11:30:57;;;;;;;15.93;6.60;;;32.70;73.00;;;;;;5088154;28;20623;-76
2023/08/21 11:33:26;;;;;;;5.63;5.23;;;32.20;74.30;;;;;;5088012;28;20972;-76
2023/08/21 11:35:53;;;;;;;5.97;5.50;;;32.00;74.80;;;;;;5088559;28;20992;-76
2023/08/21 11:38:23;;;;;;;7.40;6.73;;;32.10;77.60;;;;;;5089128;28;20622;-76
2023/08/21 11:40:54;;;;;;;6.47;5.87;;;32.30;74.80;;;;;;5088854;28;20631;-76
2023/08/21 11:43:21;;;;;;;6.40;5.80;;;32.20;77.00;;;;;;5088507;28;20620;-76
2023/08/21 11:45:48;;;;;;;7.00;6.40;;;32.10;76.70;;;;;;5087738;28;20637;-77
2023/08/21 11:48:15;;;;;;;6.50;5.90;;;32.60;73.50;;;;;;5088522;28;20730;-76
2023/08/21 11:50:42;;;;;;;8.70;5.50;;;33.20;70.90;;;;;;5087831;28;20617;-76
2023/08/21 11:53:10;;;;;;;6.40;5.80;;;33.90;69.00;;;;;;5087373;28;20806;-77
2023/08/21 11:55:39;;;;;;;6.20;5.70;;;34.70;66.60;;;;;;5088205;28;20635;-76
2023/08/21 11:58:06;;;;;;;7.83;5.50;;;35.10;67.10;;;;;;5088628;28;20672;-77
2023/08/21 12:00:33;;;;;;;5.27;4.77;;;35.90;65.10;;;;;;5087388;28;20986;-77
2023/08/21 12:03:02;;;;;;;6.67;4.63;;;36.60;64.20;;;;;;5086256;28;20626;-76
2023/08/21 12:05:29;;;;;;;6.80;5.60;;;37.40;63.60;;;;;;5087300;28;20614;-76
2023/08/21 12:07:56;;;;;;;8.65;5.82;;;38.30;61.00;;;;;;5086809;28;20205;-74
2023/08/21 12:10:24;;;;;;;5.05;4.63;;;38.90;57.70;;;;;;5088027;28;20571;-74
2023/08/21 12:12:52;;;;;;;5.45;5.05;;;39.20;56.20;;;;;;5087467;28;20197;-77
2023/08/21 12:15:20;;;;;;;5.38;4.88;;;38.60;55.50;;;;;;5088245;28;20208;-75
2023/08/21 12:17:47;;;;;;;10.27;5.47;;;38.80;55.60;;;;;;5087925;28;20217;-74
2023/08/21 12:20:13;;;;;;;7.43;5.40;;;38.10;57.20;;;;;;5087132;28;20213;-75
2023/08/21 12:22:42;;;;;;;6.15;5.57;;;37.20;58.40;;;;;;5088644;28;20248;-75
2023/08/21 12:25:09;;;;;;;8.73;5.68;;;37.60;58.00;;;;;;5087275;28;20208;-75
2023/08/21 12:27:36;;;;;;;5.57;5.07;;;38.10;56.50;;;;;;5087777;28;20313;-76
2023/08/21 12:30:05;;;;;;;6.15;5.32;;;38.80;56.10;;;;;;5086877;28;20209;-76
2023/08/21 12:32:32;;;;;;;5.60;5.10;;;38.60;55.20;;;;;;5087254;28;20205;-76
2023/08/21 12:34:59;;;;;;;5.60;5.10;;;38.90;54.40;;;;;;5087145;28;20206;-75
2023/08/21 12:37:26;;;;;;;4.47;4.13;;;38.00;53.70;;;;;;5086653;28;20309;-75
2023/08/21 12:39:54;;;;;;;5.83;5.33;;;36.10;56.00;;;;;;5086427;28;20205;-75
2023/08/21 12:42:21;;;;;;;5.70;5.30;;;35.70;59.00;;;;;;5086512;28;20233;-75
2023/08/21 12:44:47;;;;;;;5.97;5.47;;;35.80;58.70;;;;;;5086479;28;20204;-75
2023/08/21 12:47:16;;;;;;;6.83;4.67;;;36.40;57.80;;;;;;5087156;28;20208;-75
2023/08/21 12:49:41;;;;;;;5.57;5.07;;;35.80;57.50;;;;;;5086546;28;20615;-76